KAEX 210653Z 09004KT 9SM CLR 22/21 A3010 RMK AO2 SLP194 T02170211